Naples, FL

6:32 PM EST on February 14, 2016 (GMT -0500)
Golden Gate Estates | | Change Station
CLOSE
Current Station
Personal Weather Station
Location: Naples, FL
Elevation: 28 ft
Nearby Weather Stations

Elev 28 ft 26.23 °N, 81.64 °W | Updated 1 minute ago

Clear
Clear
68.7 °F
Feels Like 68.7 °F
N
0.0
Wind Variable Wind from North
Gusts 0.0 mph

Today
High -- | Low -- °F
--% Chance of Precip.
Yesterday
High -- | Low -- °F
Precip. -- in
Pressure 30.13 in
Visibility 10.0 miles
Clouds Clear
Dew Point 61 °F
Humidity 76%
Rainfall 0.00 in
Snow Depth Not available.
7:03 AM 6:18 PM
Waxing Crescent, 46% visible
METAR KAPF 142253Z 10012G16KT 10SM CLR 21/11 A3013 RMK AO2 SLP202 T02110106
Pressure 30.13 in
Visibility 10.0 miles
Clouds Clear
Dew Point 61 °F
Humidity 76%
Rainfall 0.00 in
Snow Depth Not available.
7:03 AM 6:18 PM
Waxing Crescent, 46% visible
METAR KAPF 142253Z 10012G16KT 10SM CLR 21/11 A3013 RMK AO2 SLP202 T02110106

10-Day Weather Forecast

Almanac

Astronomy

Feb. 14, 2016 Rise Set
Actual Time
Civil Twilight
Nautical Twilight
Astronomical Twilight
Moon
Length of Visible Light
Length of Day
Tomorrow will be .
, % of the Moon is Illuminated

Today's Extremes

State Highs State Lows

Community

WunderPhotos

Upload Photos

1,892,925 photos uploaded!

WunderBlog® & News

Nearby

Air Quality

  Air Quality AQ Index Pollutant
Not available.

Snow Depth

Station Depth Elevation

Earthquake Activity

City Distance Mag. Time & Date
Minimum magnitude displayed is 2.5.

Coastal Water Temperatures

Place Temperature

Stations

Nearby Weather Stations

Station Location Temp. Windchill Dew Point Humidity Wind Precip. Elev Updated Type
                   

Watches & Warnings

There are currently no watches in effect.